< < Back
Terminal Aerodrome Forecast


Current Version              Previous Versions:   1  2  3  4  5  6  7  8  9  

Terminal Aerodrome Forecast

067
FTAK31 PAJN 310500
TAFAHN
TAF
PAHN 310520Z 3106/0106 10008KT P6SM BKN080
      TEMPO 3106/3108 10008G18KT
     FM310900 VRB04KT P6SM BCFG SCT005 BKN100
     FM311500 31005KT P6SM SCT020 BKN100
     FM312100 12006KT P6SM SCT150
      AMD LTD TO CLD VIS AND WIND=

Latest METAR

974
SAUS70 KWBC 311354
MTRAHN
METAR KAHN 311351Z 07006KT 10SM FEW021 23/19 A3008 RMK AO2 SLP178
T02330194


USA.gov is the U.S. government's official web portal to all federal, state and local government web resources and services.